sensor_id;sensor_type;location;lat;lon;timestamp;pressure;altitude;pressure_sealevel;temperature;humidity
9189;BME280;34313;50.780;6.084;2023-03-18T00:02:05;98765.09;;;12.23;76.34
9189;BME280;34313;50.780;6.084;2023-03-18T00:04:30;98772.91;;;12.25;76.32
9189;BME280;34313;50.780;6.084;2023-03-18T00:06:56;98770.75;;;12.19;76.99
9189;BME280;34313;50.780;6.084;2023-03-18T00:09:22;98757.66;;;12.17;76.93
9189;BME280;34313;50.780;6.084;2023-03-18T00:11:48;98752.75;;;12.24;77.03
9189;BME280;34313;50.780;6.084;2023-03-18T00:14:13;98768.22;;;12.17;77.23
9189;BME280;34313;50.780;6.084;2023-03-18T00:16:43;98776.25;;;12.16;77.48
9189;BME280;34313;50.780;6.084;2023-03-18T00:19:09;98780.22;;;12.10;78.12
9189;BME280;34313;50.780;6.084;2023-03-18T00:21:34;98785.13;;;12.15;78.11
9189;BME280;34313;50.780;6.084;2023-03-18T00:23:59;98784.06;;;12.17;78.48
9189;BME280;34313;50.780;6.084;2023-03-18T00:26:26;98802.13;;;12.35;77.93
9189;BME280;34313;50.780;6.084;2023-03-18T00:28:54;98795.41;;;12.42;77.99
9189;BME280;34313;50.780;6.084;2023-03-18T00:31:20;98784.09;;;12.40;78.66
9189;BME280;34313;50.780;6.084;2023-03-18T00:33:46;98782.78;;;12.45;78.89
9189;BME280;34313;50.780;6.084;2023-03-18T00:36:12;98780.75;;;12.49;80.11
9189;BME280;34313;50.780;6.084;2023-03-18T00:38:39;98779.66;;;12.40;81.07
9189;BME280;34313;50.780;6.084;2023-03-18T00:41:06;98777.13;;;12.39;81.68
9189;BME280;34313;50.780;6.084;2023-03-18T00:43:37;98772.34;;;12.33;82.98
9189;BME280;34313;50.780;6.084;2023-03-18T00:46:15;98778.94;;;12.38;84.13
9189;BME280;34313;50.780;6.084;2023-03-18T00:48:43;98775.09;;;12.31;84.79
9189;BME280;34313;50.780;6.084;2023-03-18T00:51:09;98770.88;;;12.28;85.06
9189;BME280;34313;50.780;6.084;2023-03-18T00:53:40;98775.31;;;12.28;85.85
9189;BME280;34313;50.780;6.084;2023-03-18T00:56:06;98773.50;;;12.17;86.50
9189;BME280;34313;50.780;6.084;2023-03-18T00:58:33;98772.63;;;12.05;87.77
9189;BME280;34313;50.780;6.084;2023-03-18T01:00:59;98768.19;;;12.06;88.54
9189;BME280;34313;50.780;6.084;2023-03-18T01:03:24;98772.63;;;12.05;89.54
9189;BME280;34313;50.780;6.084;2023-03-18T01:05:50;98769.38;;;12.02;90.51
9189;BME280;34313;50.780;6.084;2023-03-18T01:08:18;98761.81;;;11.97;91.14
9189;BME280;34313;50.780;6.084;2023-03-18T01:10:43;98767.94;;;11.98;91.79
9189;BME280;34313;50.780;6.084;2023-03-18T01:13:08;98768.78;;;11.74;93.02
9189;BME280;34313;50.780;6.084;2023-03-18T01:15:34;98759.97;;;11.62;94.72
9189;BME280;34313;50.780;6.084;2023-03-18T01:17:59;98754.06;;;11.47;96.78
9189;BME280;34313;50.780;6.084;2023-03-18T01:20:25;98767.56;;;11.43;97.19
9189;BME280;34313;50.780;6.084;2023-03-18T01:22:50;98763.78;;;11.23;99.27
9189;BME280;34313;50.780;6.084;2023-03-18T01:25:16;98775.50;;;11.19;100.00
9189;BME280;34313;50.780;6.084;2023-03-18T01:27:42;98773.13;;;11.03;100.00
9189;BME280;34313;50.780;6.084;2023-03-18T01:30:09;98768.50;;;10.93;100.00
9189;BME280;34313;50.780;6.084;2023-03-18T01:32:35;98775.38;;;10.83;100.00
9189;BME280;34313;50.780;6.084;2023-03-18T01:35:00;98780.25;;;10.76;100.00
9189;BME280;34313;50.780;6.084;2023-03-18T01:37:26;98780.06;;;10.67;100.00
9189;BME280;34313;50.780;6.084;2023-03-18T01:39:53;98783.34;;;10.57;100.00
9189;BME280;34313;50.780;6.084;2023-03-18T01:42:19;98780.59;;;10.46;100.00
9189;BME280;34313;50.780;6.084;2023-03-18T01:44:45;98781.63;;;10.31;100.00
9189;BME280;34313;50.780;6.084;2023-03-18T01:47:11;98785.53;;;10.25;100.00
9189;BME280;34313;50.780;6.084;2023-03-18T01:49:41;98791.75;;;10.24;100.00
9189;BME280;34313;50.780;6.084;2023-03-18T01:52:12;98787.97;;;10.28;100.00
9189;BME280;34313;50.780;6.084;2023-03-18T01:54:53;98787.78;;;10.31;100.00
9189;BME280;34313;50.780;6.084;2023-03-18T01:57:21;98788.50;;;10.20;100.00
9189;BME280;34313;50.780;6.084;2023-03-18T01:59:47;98779.81;;;10.18;100.00
9189;BME280;34313;50.780;6.084;2023-03-18T02:02:16;98776.34;;;10.31;100.00
9189;BME280;34313;50.780;6.084;2023-03-18T02:04:48;98771.63;;;10.23;100.00
9189;BME280;34313;50.780;6.084;2023-03-18T02:07:21;98771.63;;;10.23;100.00
9189;BME280;34313;50.780;6.084;2023-03-18T02:09:48;98772.44;;;10.23;100.00
9189;BME280;34313;50.780;6.084;2023-03-18T02:12:20;98779.22;;;10.28;100.00
9189;BME280;34313;50.780;6.084;2023-03-18T02:14:48;98775.53;;;10.17;100.00
9189;BME280;34313;50.780;6.084;2023-03-18T02:17:17;98785.00;;;10.20;100.00
9189;BME280;34313;50.780;6.084;2023-03-18T02:20:08;98782.88;;;10.25;100.00
9189;BME280;34313;50.780;6.084;2023-03-18T02:22:50;98780.88;;;10.16;100.00
9189;BME280;34313;50.780;6.084;2023-03-18T02:28:17;98786.69;;;10.08;100.00
9189;BME280;34313;50.780;6.084;2023-03-18T02:30:50;98786.06;;;10.05;100.00
9189;BME280;34313;50.780;6.084;2023-03-18T02:33:18;98788.03;;;10.01;100.00
9189;BME280;34313;50.780;6.084;2023-03-18T02:35:52;98789.53;;;10.05;100.00
9189;BME280;34313;50.780;6.084;2023-03-18T02:38:19;98785.53;;;9.99;100.00
9189;BME280;34313;50.780;6.084;2023-03-18T02:40:44;98776.22;;;9.94;100.00
9189;BME280;34313;50.780;6.084;2023-03-18T02:43:19;98786.53;;;9.84;100.00
9189;BME280;34313;50.780;6.084;2023-03-18T02:48:36;98791.38;;;9.90;100.00
9189;BME280;34313;50.780;6.084;2023-03-18T02:51:04;98787.66;;;9.80;100.00
9189;BME280;34313;50.780;6.084;2023-03-18T02:53:30;98792.91;;;9.67;100.00
9189;BME280;34313;50.780;6.084;2023-03-18T02:55:55;98794.72;;;9.67;100.00
9189;BME280;34313;50.780;6.084;2023-03-18T02:58:21;98797.63;;;9.62;100.00
9189;BME280;34313;50.780;6.084;2023-03-18T03:00:46;98797.19;;;9.55;100.00
9189;BME280;34313;50.780;6.084;2023-03-18T03:03:11;98799.19;;;9.52;100.00
9189;BME280;34313;50.780;6.084;2023-03-18T03:05:37;98797.88;;;9.44;100.00
9189;BME280;34313;50.780;6.084;2023-03-18T03:08:03;98801.13;;;9.62;100.00
9189;BME280;34313;50.780;6.084;2023-03-18T03:10:29;98804.50;;;9.64;100.00
9189;BME280;34313;50.780;6.084;2023-03-18T03:12:55;98807.41;;;9.60;100.00
9189;BME280;34313;50.780;6.084;2023-03-18T03:15:21;98803.94;;;9.59;100.00
9189;BME280;34313;50.780;6.084;2023-03-18T03:17:46;98817.75;;;9.63;100.00
9189;BME280;34313;50.780;6.084;2023-03-18T03:20:12;98814.13;;;9.78;100.00
9189;BME280;34313;50.780;6.084;2023-03-18T03:22:40;98816.78;;;9.91;100.00
9189;BME280;34313;50.780;6.084;2023-03-18T03:25:07;98816.66;;;9.93;100.00
9189;BME280;34313;50.780;6.084;2023-03-18T03:27:33;98819.31;;;9.93;100.00
9189;BME280;34313;50.780;6.084;2023-03-18T03:29:58;98824.16;;;9.99;100.00
9189;BME280;34313;50.780;6.084;2023-03-18T03:32:23;98831.22;;;9.98;100.00
9189;BME280;34313;50.780;6.084;2023-03-18T03:34:49;98828.59;;;10.11;100.00
9189;BME280;34313;50.780;6.084;2023-03-18T03:37:14;98830.19;;;10.14;100.00
9189;BME280;34313;50.780;6.084;2023-03-18T03:39:40;98840.63;;;10.28;100.00
9189;BME280;34313;50.780;6.084;2023-03-18T03:42:06;98841.63;;;10.40;100.00
9189;BME280;34313;50.780;6.084;2023-03-18T03:44:31;98838.25;;;10.51;100.00
9189;BME280;34313;50.780;6.084;2023-03-18T03:46:57;98849.50;;;10.66;100.00
9189;BME280;34313;50.780;6.084;2023-03-18T03:49:22;98838.97;;;10.66;100.00
9189;BME280;34313;50.780;6.084;2023-03-18T03:51:48;98846.03;;;10.78;100.00
9189;BME280;34313;50.780;6.084;2023-03-18T03:54:13;98844.78;;;10.84;100.00
9189;BME280;34313;50.780;6.084;2023-03-18T03:56:40;98839.28;;;10.87;100.00
9189;BME280;34313;50.780;6.084;2023-03-18T03:59:05;98848.66;;;10.91;100.00
9189;BME280;34313;50.780;6.084;2023-03-18T04:01:31;98846.13;;;10.89;100.00
9189;BME280;34313;50.780;6.084;2023-03-18T04:03:56;98833.59;;;10.80;100.00
9189;BME280;34313;50.780;6.084;2023-03-18T04:06:22;98861.66;;;10.94;100.00
9189;BME280;34313;50.780;6.084;2023-03-18T04:08:48;98865.00;;;10.96;100.00
9189;BME280;34313;50.780;6.084;2023-03-18T04:11:13;98861.00;;;10.90;100.00
9189;BME280;34313;50.780;6.084;2023-03-18T04:13:38;98861.50;;;10.95;100.00
9189;BME280;34313;50.780;6.084;2023-03-18T04:16:04;98864.91;;;10.97;100.00
9189;BME280;34313;50.780;6.084;2023-03-18T04:18:29;98868.69;;;10.93;100.00
9189;BME280;34313;50.780;6.084;2023-03-18T04:20:55;98870.19;;;10.85;100.00
9189;BME280;34313;50.780;6.084;2023-03-18T04:23:20;98870.72;;;10.77;100.00
9189;BME280;34313;50.780;6.084;2023-03-18T04:25:46;98875.34;;;10.73;100.00
9189;BME280;34313;50.780;6.084;2023-03-18T04:28:11;98878.94;;;10.72;100.00
9189;BME280;34313;50.780;6.084;2023-03-18T04:30:39;98880.00;;;10.70;100.00
9189;BME280;34313;50.780;6.084;2023-03-18T04:33:04;98883.06;;;10.76;100.00
9189;BME280;34313;50.780;6.084;2023-03-18T04:35:30;98883.47;;;10.83;100.00
9189;BME280;34313;50.780;6.084;2023-03-18T04:37:56;98882.94;;;10.78;100.00
9189;BME280;34313;50.780;6.084;2023-03-18T04:40:21;98888.63;;;10.72;100.00
9189;BME280;34313;50.780;6.084;2023-03-18T04:42:47;98886.94;;;10.71;100.00
9189;BME280;34313;50.780;6.084;2023-03-18T04:45:14;98886.13;;;10.57;100.00
9189;BME280;34313;50.780;6.084;2023-03-18T04:47:40;98887.38;;;10.52;100.00
9189;BME280;34313;50.780;6.084;2023-03-18T04:50:06;98893.47;;;10.52;100.00
9189;BME280;34313;50.780;6.084;2023-03-18T04:52:35;98902.53;;;10.48;100.00
9189;BME280;34313;50.780;6.084;2023-03-18T04:55:00;98899.38;;;10.43;100.00
9189;BME280;34313;50.780;6.084;2023-03-18T04:57:25;98893.69;;;10.49;100.00
9189;BME280;34313;50.780;6.084;2023-03-18T04:59:51;98904.22;;;10.49;100.00
9189;BME280;34313;50.780;6.084;2023-03-18T05:02:17;98904.22;;;10.49;100.00
9189;BME280;34313;50.780;6.084;2023-03-18T05:04:42;98899.38;;;10.43;100.00
9189;BME280;34313;50.780;6.084;2023-03-18T05:07:11;98907.03;;;10.33;100.00
9189;BME280;34313;50.780;6.084;2023-03-18T05:09:37;98912.25;;;10.20;100.00
9189;BME280;34313;50.780;6.084;2023-03-18T05:12:02;98914.13;;;10.18;100.00
9189;BME280;34313;50.780;6.084;2023-03-18T05:14:28;98907.38;;;10.14;100.00
9189;BME280;34313;50.780;6.084;2023-03-18T05:16:53;98907.84;;;10.21;100.00
9189;BME280;34313;50.780;6.084;2023-03-18T05:19:19;98909.38;;;10.38;100.00
9189;BME280;34313;50.780;6.084;2023-03-18T05:21:44;98908.50;;;10.37;100.00
9189;BME280;34313;50.780;6.084;2023-03-18T05:24:10;98907.91;;;10.47;100.00
9189;BME280;34313;50.780;6.084;2023-03-18T05:26:35;98908.56;;;10.50;100.00
9189;BME280;34313;50.780;6.084;2023-03-18T05:29:01;98900.13;;;10.58;100.00
9189;BME280;34313;50.780;6.084;2023-03-18T05:31:28;98898.41;;;10.57;100.00
9189;BME280;34313;50.780;6.084;2023-03-18T05:33:53;98904.22;;;10.49;100.00
9189;BME280;34313;50.780;6.084;2023-03-18T05:36:18;98907.06;;;10.46;100.00
9189;BME280;34313;50.780;6.084;2023-03-18T05:38:44;98899.59;;;10.40;100.00
9189;BME280;34313;50.780;6.084;2023-03-18T05:41:09;98912.22;;;10.35;100.00
9189;BME280;34313;50.780;6.084;2023-03-18T05:43:34;98904.75;;;10.42;100.00
9189;BME280;34313;50.780;6.084;2023-03-18T05:46:00;98892.66;;;10.25;100.00
9189;BME280;34313;50.780;6.084;2023-03-18T05:48:25;98907.59;;;10.11;100.00
9189;BME280;34313;50.780;6.084;2023-03-18T05:50:51;98908.94;;;10.04;100.00
9189;BME280;34313;50.780;6.084;2023-03-18T05:53:16;98899.69;;;10.11;100.00
9189;BME280;34313;50.780;6.084;2023-03-18T05:55:42;98911.19;;;10.10;100.00
9189;BME280;34313;50.780;6.084;2023-03-18T05:58:08;98904.09;;;9.98;100.00
9189;BME280;34313;50.780;6.084;2023-03-18T06:00:34;98916.59;;;9.94;100.00
9189;BME280;34313;50.780;6.084;2023-03-18T06:03:00;98916.38;;;9.97;100.00
9189;BME280;34313;50.780;6.084;2023-03-18T06:05:26;98911.03;;;9.99;100.00
9189;BME280;34313;50.780;6.084;2023-03-18T06:07:54;98913.25;;;10.05;100.00
9189;BME280;34313;50.780;6.084;2023-03-18T06:10:21;98913.72;;;10.12;100.00
9189;BME280;34313;50.780;6.084;2023-03-18T06:12:47;98913.94;;;10.21;100.00
9189;BME280;34313;50.780;6.084;2023-03-18T06:15:13;98911.84;;;10.27;100.00
9189;BME280;34313;50.780;6.084;2023-03-18T06:17:39;98909.78;;;10.32;100.00
9189;BME280;34313;50.780;6.084;2023-03-18T06:20:07;98916.66;;;10.47;100.00
9189;BME280;34313;50.780;6.084;2023-03-18T06:22:34;98912.56;;;10.56;100.00
9189;BME280;34313;50.780;6.084;2023-03-18T06:25:01;98919.19;;;10.74;100.00
9189;BME280;34313;50.780;6.084;2023-03-18T06:27:28;98920.16;;;10.99;100.00
9189;BME280;34313;50.780;6.084;2023-03-18T06:29:53;98923.94;;;11.21;100.00
9189;BME280;34313;50.780;6.084;2023-03-18T06:32:19;98930.13;;;11.45;100.00
9189;BME280;34313;50.780;6.084;2023-03-18T06:34:45;98933.34;;;11.75;100.00
9189;BME280;34313;50.780;6.084;2023-03-18T06:37:11;98938.47;;;12.13;98.93
9189;BME280;34313;50.780;6.084;2023-03-18T06:39:36;98938.88;;;12.55;96.81
9189;BME280;34313;50.780;6.084;2023-03-18T06:42:02;98930.91;;;12.91;93.87
9189;BME280;34313;50.780;6.084;2023-03-18T06:44:27;98931.75;;;13.14;91.23
9189;BME280;34313;50.780;6.084;2023-03-18T06:46:53;98939.63;;;13.38;89.03
9189;BME280;34313;50.780;6.084;2023-03-18T06:49:18;98929.22;;;14.12;85.24
9189;BME280;34313;50.780;6.084;2023-03-18T06:51:44;98929.31;;;14.75;81.75
9189;BME280;34313;50.780;6.084;2023-03-18T06:54:09;98932.50;;;15.00;78.33
9189;BME280;34313;50.780;6.084;2023-03-18T06:56:35;98929.25;;;15.18;76.39
9189;BME280;34313;50.780;6.084;2023-03-18T06:59:06;98921.03;;;15.21;76.21
9189;BME280;34313;50.780;6.084;2023-03-18T07:01:33;98928.94;;;15.82;73.35
9189;BME280;34313;50.780;6.084;2023-03-18T07:03:59;98908.69;;;16.20;70.87
9189;BME280;34313;50.780;6.084;2023-03-18T07:06:28;98919.84;;;16.73;69.00
9189;BME280;34313;50.780;6.084;2023-03-18T07:08:55;98912.72;;;17.30;65.62
9189;BME280;34313;50.780;6.084;2023-03-18T07:11:20;98926.28;;;18.10;62.71
9189;BME280;34313;50.780;6.084;2023-03-18T07:13:46;98915.91;;;19.14;58.46
9189;BME280;34313;50.780;6.084;2023-03-18T07:16:11;98921.31;;;19.22;57.04
9189;BME280;34313;50.780;6.084;2023-03-18T07:18:37;98921.94;;;19.50;55.85
9189;BME280;34313;50.780;6.084;2023-03-18T07:21:03;98918.50;;;20.25;54.26
9189;BME280;34313;50.780;6.084;2023-03-18T07:23:28;98922.19;;;20.82;51.37
9189;BME280;34313;50.780;6.084;2023-03-18T07:25:54;98920.81;;;21.02;49.91
9189;BME280;34313;50.780;6.084;2023-03-18T07:28:19;98926.88;;;20.80;49.74
9189;BME280;34313;50.780;6.084;2023-03-18T07:30:45;98936.38;;;20.49;50.27
9189;BME280;34313;50.780;6.084;2023-03-18T07:33:11;98934.00;;;20.05;51.29
9189;BME280;34313;50.780;6.084;2023-03-18T07:35:36;98932.28;;;19.88;51.63
9189;BME280;34313;50.780;6.084;2023-03-18T07:38:05;98942.22;;;20.28;50.65
9189;BME280;34313;50.780;6.084;2023-03-18T07:40:31;98940.75;;;20.83;48.65
9189;BME280;34313;50.780;6.084;2023-03-18T07:42:56;98945.78;;;21.59;47.25
9189;BME280;34313;50.780;6.084;2023-03-18T07:45:21;98950.25;;;22.98;44.72
9189;BME280;34313;50.780;6.084;2023-03-18T07:47:48;98956.22;;;24.41;41.25
9189;BME280;34313;50.780;6.084;2023-03-18T07:50:14;98954.44;;;24.91;39.58
9189;BME280;34313;50.780;6.084;2023-03-18T07:52:39;98956.44;;;25.81;37.27
9189;BME280;34313;50.780;6.084;2023-03-18T07:55:05;98943.09;;;26.21;36.41
9189;BME280;34313;50.780;6.084;2023-03-18T07:57:30;98948.81;;;25.21;37.39
9189;BME280;34313;50.780;6.084;2023-03-18T07:59:55;98945.47;;;24.84;37.92
9189;BME280;34313;50.780;6.084;2023-03-18T08:02:21;98963.53;;;23.89;39.50
9189;BME280;34313;50.780;6.084;2023-03-18T08:04:46;98968.81;;;23.68;40.04
9189;BME280;34313;50.780;6.084;2023-03-18T08:07:12;98966.88;;;22.56;41.62
9189;BME280;34313;50.780;6.084;2023-03-18T08:09:37;98975.75;;;21.70;43.93
9189;BME280;34313;50.780;6.084;2023-03-18T08:12:03;98980.75;;;21.09;45.62
9189;BME280;34313;50.780;6.084;2023-03-18T08:14:29;98989.44;;;20.70;46.64
9189;BME280;34313;50.780;6.084;2023-03-18T08:16:55;98977.69;;;21.85;44.84
9189;BME280;34313;50.780;6.084;2023-03-18T08:19:20;98964.16;;;23.02;42.16
9189;BME280;34313;50.780;6.084;2023-03-18T08:21:46;98973.75;;;24.73;38.81
9189;BME280;34313;50.780;6.084;2023-03-18T08:24:12;98961.44;;;25.91;36.35
9189;BME280;34313;50.780;6.084;2023-03-18T08:26:38;98971.97;;;26.27;35.44
9189;BME280;34313;50.780;6.084;2023-03-18T08:29:03;98964.13;;;26.46;34.92
9189;BME280;34313;50.780;6.084;2023-03-18T08:31:29;98976.66;;;26.67;34.33
9189;BME280;34313;50.780;6.084;2023-03-18T08:33:56;98974.75;;;26.87;33.88
9189;BME280;34313;50.780;6.084;2023-03-18T08:36:22;98972.06;;;26.94;33.49
9189;BME280;34313;50.780;6.084;2023-03-18T08:38:47;98973.63;;;26.35;33.88
9189;BME280;34313;50.780;6.084;2023-03-18T08:41:13;98986.59;;;25.91;35.48
9189;BME280;34313;50.780;6.084;2023-03-18T08:43:38;98980.09;;;25.85;34.58
9189;BME280;34313;50.780;6.084;2023-03-18T08:46:05;98969.34;;;25.51;34.84
9189;BME280;34313;50.780;6.084;2023-03-18T08:48:31;98985.25;;;25.74;34.67
9189;BME280;34313;50.780;6.084;2023-03-18T08:50:56;98973.91;;;25.50;34.63
9189;BME280;34313;50.780;6.084;2023-03-18T08:53:22;98976.09;;;26.16;33.94
9189;BME280;34313;50.780;6.084;2023-03-18T08:55:47;98973.22;;;26.25;33.58
9189;BME280;34313;50.780;6.084;2023-03-18T08:58:13;98978.00;;;26.29;33.22
9189;BME280;34313;50.780;6.084;2023-03-18T09:00:40;98978.03;;;25.88;33.61
9189;BME280;34313;50.780;6.084;2023-03-18T09:03:06;98969.69;;;25.34;34.43
9189;BME280;34313;50.780;6.084;2023-03-18T09:05:31;98966.03;;;25.20;34.67
9189;BME280;34313;50.780;6.084;2023-03-18T09:07:57;98981.00;;;25.23;34.91
9189;BME280;34313;50.780;6.084;2023-03-18T09:10:24;98984.59;;;25.65;34.23
9189;BME280;34313;50.780;6.084;2023-03-18T09:12:49;98975.53;;;25.79;34.12
9189;BME280;34313;50.780;6.084;2023-03-18T09:15:16;98975.84;;;25.56;34.19
9189;BME280;34313;50.780;6.084;2023-03-18T09:17:41;98986.63;;;25.63;33.97
9189;BME280;34313;50.780;6.084;2023-03-18T09:20:09;98979.19;;;25.02;34.87
9189;BME280;34313;50.780;6.084;2023-03-18T09:22:37;98981.44;;;23.82;36.58
9189;BME280;34313;50.780;6.084;2023-03-18T09:25:03;98987.44;;;23.10;38.05
9189;BME280;34313;50.780;6.084;2023-03-18T09:27:29;98991.03;;;22.56;38.79
9189;BME280;34313;50.780;6.084;2023-03-18T09:29:54;98996.31;;;21.78;40.30
9189;BME280;34313;50.780;6.084;2023-03-18T09:32:21;98994.81;;;20.78;42.60
9189;BME280;34313;50.780;6.084;2023-03-18T09:34:46;98988.28;;;20.56;43.06
9189;BME280;34313;50.780;6.084;2023-03-18T09:37:12;98982.09;;;20.97;42.63
9189;BME280;34313;50.780;6.084;2023-03-18T09:39:42;98969.94;;;21.50;41.59
9189;BME280;34313;50.780;6.084;2023-03-18T09:42:28;98970.44;;;21.94;40.16
9189;BME280;34313;50.780;6.084;2023-03-18T09:44:59;98981.25;;;22.08;39.96
9189;BME280;34313;50.780;6.084;2023-03-18T09:53:23;98978.56;;;23.84;36.58
9189;BME280;34313;50.780;6.084;2023-03-18T09:55:58;98986.28;;;24.60;35.57
9189;BME280;34313;50.780;6.084;2023-03-18T09:58:43;98977.94;;;24.76;34.88
9189;BME280;34313;50.780;6.084;2023-03-18T10:01:11;98974.50;;;23.88;35.64
9189;BME280;34313;50.780;6.084;2023-03-18T10:03:39;98974.09;;;23.76;36.30
9189;BME280;34313;50.780;6.084;2023-03-18T10:06:13;98972.53;;;23.82;36.40
9189;BME280;34313;50.780;6.084;2023-03-18T10:11:34;98980.06;;;23.86;35.75
9189;BME280;34313;50.780;6.084;2023-03-18T10:14:14;98968.53;;;23.33;36.29
9189;BME280;34313;50.780;6.084;2023-03-18T10:19:16;98986.53;;;23.32;36.73
9189;BME280;34313;50.780;6.084;2023-03-18T10:24:35;98980.31;;;23.17;36.63
9189;BME280;34313;50.780;6.084;2023-03-18T10:27:23;98986.16;;;23.50;36.07
9189;BME280;34313;50.780;6.084;2023-03-18T10:32:44;98986.75;;;24.48;34.33
9189;BME280;34313;50.780;6.084;2023-03-18T10:35:25;98999.16;;;23.76;34.66
9189;BME280;34313;50.780;6.084;2023-03-18T10:38:06;99002.41;;;23.57;34.97
9189;BME280;34313;50.780;6.084;2023-03-18T10:40:38;98997.03;;;23.57;34.73
9189;BME280;34313;50.780;6.084;2023-03-18T10:43:17;98995.06;;;23.51;34.62
9189;BME280;34313;50.780;6.084;2023-03-18T10:45:45;98995.63;;;23.31;34.83
9189;BME280;34313;50.780;6.084;2023-03-18T10:48:20;99011.06;;;22.91;35.53
9189;BME280;34313;50.780;6.084;2023-03-18T10:51:04;99008.84;;;22.80;35.29
9189;BME280;34313;50.780;6.084;2023-03-18T10:54:21;99006.84;;;22.51;36.03
9189;BME280;34313;50.780;6.084;2023-03-18T10:56:27;99000.47;;;22.28;36.75
9189;BME280;34313;50.780;6.084;2023-03-18T10:58:53;99001.94;;;22.00;37.39
9189;BME280;34313;50.780;6.084;2023-03-18T11:01:22;99004.06;;;21.65;38.35
9189;BME280;34313;50.780;6.084;2023-03-18T11:03:57;99003.50;;;21.05;40.18
9189;BME280;34313;50.780;6.084;2023-03-18T11:06:40;99002.19;;;20.76;40.92
9189;BME280;34313;50.780;6.084;2023-03-18T11:09:09;98991.78;;;21.14;40.70
9189;BME280;34313;50.780;6.084;2023-03-18T11:11:34;98994.09;;;21.34;40.55
9189;BME280;34313;50.780;6.084;2023-03-18T11:14:05;98997.00;;;21.72;39.65
9189;BME280;34313;50.780;6.084;2023-03-18T11:16:38;98991.94;;;21.85;39.40
9189;BME280;34313;50.780;6.084;2023-03-18T11:21:46;98989.13;;;22.41;38.39
9189;BME280;34313;50.780;6.084;2023-03-18T11:24:24;98986.88;;;22.53;37.95
9189;BME280;34313;50.780;6.084;2023-03-18T11:27:01;98987.88;;;22.29;38.42
9189;BME280;34313;50.780;6.084;2023-03-18T11:29:30;98987.06;;;22.28;38.78
9189;BME280;34313;50.780;6.084;2023-03-18T11:32:00;98979.31;;;22.34;38.72
9189;BME280;34313;50.780;6.084;2023-03-18T11:34:28;98984.47;;;22.04;39.59
9189;BME280;34313;50.780;6.084;2023-03-18T11:36:56;98987.44;;;21.05;41.73
9189;BME280;34313;50.780;6.084;2023-03-18T11:39:38;99001.88;;;20.80;43.07
9189;BME280;34313;50.780;6.084;2023-03-18T11:42:17;98997.94;;;20.49;44.20
9189;BME280;34313;50.780;6.084;2023-03-18T11:44:43;98994.53;;;20.06;45.10
9189;BME280;34313;50.780;6.084;2023-03-18T11:47:29;98993.75;;;20.38;44.79
9189;BME280;34313;50.780;6.084;2023-03-18T11:49:57;98994.13;;;20.52;44.81
9189;BME280;34313;50.780;6.084;2023-03-18T11:52:43;98983.06;;;20.47;44.71
9189;BME280;34313;50.780;6.084;2023-03-18T11:56:05;98994.38;;;20.16;45.64
9189;BME280;34313;50.780;6.084;2023-03-18T12:06:26;98993.94;;;19.86;46.06
9189;BME280;34313;50.780;6.084;2023-03-18T12:08:56;98994.91;;;19.77;46.21
9189;BME280;34313;50.780;6.084;2023-03-18T12:12:07;98992.50;;;19.65;47.29
9189;BME280;34313;50.780;6.084;2023-03-18T12:14:44;98984.00;;;19.36;48.56
9189;BME280;34313;50.780;6.084;2023-03-18T12:22:46;98991.78;;;18.41;52.85
9189;BME280;34313;50.780;6.084;2023-03-18T12:31:04;98994.94;;;18.08;53.71
9189;BME280;34313;50.780;6.084;2023-03-18T12:42:43;98996.31;;;17.85;54.07
9189;BME280;34313;50.780;6.084;2023-03-18T12:45:17;98991.19;;;18.01;54.62
9189;BME280;34313;50.780;6.084;2023-03-18T12:47:58;98988.38;;;18.03;53.83
9189;BME280;34313;50.780;6.084;2023-03-18T12:50:36;98993.81;;;17.73;54.09
9189;BME280;34313;50.780;6.084;2023-03-18T12:53:08;98999.19;;;17.36;55.14
9189;BME280;34313;50.780;6.084;2023-03-18T12:55:42;98999.31;;;17.25;56.02
9189;BME280;34313;50.780;6.084;2023-03-18T12:58:14;98988.47;;;17.46;55.55
9189;BME280;34313;50.780;6.084;2023-03-18T13:03:36;98990.09;;;18.94;52.07
9189;BME280;34313;50.780;6.084;2023-03-18T13:06:22;98981.00;;;19.73;49.91
9189;BME280;34313;50.780;6.084;2023-03-18T13:09:04;98986.63;;;19.96;48.90
9189;BME280;34313;50.780;6.084;2023-03-18T13:11:50;98984.72;;;20.39;47.62
9189;BME280;34313;50.780;6.084;2023-03-18T13:17:15;98966.78;;;20.15;47.71
9189;BME280;34313;50.780;6.084;2023-03-18T13:19:43;98967.28;;;20.02;47.41
9189;BME280;34313;50.780;6.084;2023-03-18T13:27:56;98961.25;;;19.66;48.71
9189;BME280;34313;50.780;6.084;2023-03-18T13:33:23;98959.56;;;19.99;47.79
9189;BME280;34313;50.780;6.084;2023-03-18T13:41:18;98951.31;;;19.76;48.20
9189;BME280;34313;50.780;6.084;2023-03-18T13:43:50;98962.44;;;19.72;48.36
9189;BME280;34313;50.780;6.084;2023-03-18T13:46:28;98952.06;;;19.60;48.91
9189;BME280;34313;50.780;6.084;2023-03-18T13:48:57;98945.41;;;19.73;47.51
9189;BME280;34313;50.780;6.084;2023-03-18T13:53:50;98958.09;;;20.30;46.15
9189;BME280;34313;50.780;6.084;2023-03-18T13:56:46;98951.09;;;20.20;46.07
9189;BME280;34313;50.780;6.084;2023-03-18T14:04:49;98945.09;;;20.43;45.58
9189;BME280;34313;50.780;6.084;2023-03-18T14:07:17;98943.75;;;20.31;44.55
9189;BME280;34313;50.780;6.084;2023-03-18T14:14:55;98935.91;;;19.36;45.05
9189;BME280;34313;50.780;6.084;2023-03-18T14:17:43;98928.13;;;19.16;45.32
9189;BME280;34313;50.780;6.084;2023-03-18T14:22:44;98932.59;;;19.07;45.64
9189;BME280;34313;50.780;6.084;2023-03-18T14:27:46;98933.34;;;19.26;44.36
9189;BME280;34313;50.780;6.084;2023-03-18T14:33:01;98932.31;;;19.19;45.03
9189;BME280;34313;50.780;6.084;2023-03-18T14:35:32;98922.16;;;18.96;45.54
9189;BME280;34313;50.780;6.084;2023-03-18T14:38:11;98914.53;;;18.57;45.65
9189;BME280;34313;50.780;6.084;2023-03-18T14:40:45;98925.03;;;18.59;46.25
9189;BME280;34313;50.780;6.084;2023-03-18T14:45:56;98923.56;;;18.82;45.42
9189;BME280;34313;50.780;6.084;2023-03-18T14:48:28;98916.88;;;18.60;45.32
9189;BME280;34313;50.780;6.084;2023-03-18T14:51:13;98920.00;;;18.56;45.76
9189;BME280;34313;50.780;6.084;2023-03-18T14:54:02;98926.22;;;18.82;45.57